Delta Ocean — SVAU9 — position and weather

sailwx.info

Track history (hours):
 
Tides and Currents Weather Stations Pressure Air Temp Water Temp Dewpoint Dewpoint Depression Visibility Wind Speed Wind Dir Waves Ship Positions

Delta Ocean

Last reported at 2016-Feb-10 12:22 UTC. Time now 2016-Feb-11 08:49 UTC.
Position S 30°41' E 016°11'.

Length 274 m; draft 9 m.

Type: Tanker. MMSI: 240958000.

Date/timePositionNaut miles runAvg speedWind from/ knotsBaromVisibWave heightAir tempDewpointWater temp
2016-Feb-10 12:22S 30°41' E 016°11'97 9.6
2016-Feb-10 02:15S 32°11' E 016°52'48 9.9
2016-Feb-09 21:25S 32°56' E 017°13'23 9.9
2016-Feb-09 19:05S 33°17' E 017°23'25 9.8
2016-Feb-09 16:33S 33°41' E 017°34'1210.2
2016-Feb-09 15:21S 33°52' E 017°40'1010.0
2016-Feb-09 14:22S 34°01' E 017°44'1210.3
2016-Feb-09 13:15S 34°12' E 017°49'910.5
2016-Feb-09 12:23S 34°20' E 017°53'1210.6
2016-Feb-09 11:15S 34°31' E 017°60'811.2
2016-Feb-09 10:30S 34°36' E 018°07'1310.7
2016-Feb-09 09:19S 34°41' E 018°22'120 9.4
2016-Feb-08 20:32S 34°58' E 020°46'356 9.4
2016-Feb-07 06:31S 33°39' E 027°46'1413.3
2016-Feb-07 05:26S 33°31' E 028°01'1213.3
2016-Feb-07 04:31S 33°24' E 028°13'1913.0
2016-Feb-07 03:05S 33°11' E 028°29'21011.2
2016-Feb-06 08:14S 30°21' E 030°55'20 4.9
2016-Feb-06 04:07S 30°01' E 030°59'1 1.6
2016-Feb-06 03:26S 30°00' E 030°58'0 0.0
2016-Feb-06 02:29S 30°00' E 030°58'0 0.0
2016-Feb-06 01:32S 30°00' E 030°58'0 0.0
2016-Feb-06 00:32S 30°00' E 030°58'0 0.0
2016-Feb-05 23:32S 30°00' E 030°58'0 0.0
2016-Feb-05 22:29S 30°00' E 030°58'0 0.0
2016-Feb-05 21:32S 30°00' E 030°58'0 0.0
2016-Feb-05 20:32S 30°00' E 030°58'0 0.0
2016-Feb-05 19:32S 30°00' E 030°58'0 0.0
2016-Feb-05 18:29S 30°00' E 030°58'0 0.0
2016-Feb-05 17:32S 30°00' E 030°58'0 0.0
2016-Feb-05 16:23S 30°00' E 030°58'0 0.0
2016-Feb-05 15:32S 30°00' E 030°58'0 0.0
2016-Feb-05 14:32S 30°00' E 030°58'0 0.0
2016-Feb-05 13:32S 30°00' E 030°58'0 0.0
2016-Feb-05 12:29S 30°00' E 030°58'0 0.0
2016-Feb-05 11:32S 30°00' E 030°58'0 0.0
2016-Feb-05 10:29S 30°00' E 030°58'0 0.0
2016-Feb-05 09:32S 30°00' E 030°58'0 0.0
2016-Feb-05 08:32S 30°00' E 030°58'0 0.0
2016-Feb-05 07:32S 30°00' E 030°58'0 0.1
2016-Feb-05 06:33S 30°00' E 030°59'1 1.5
2016-Feb-05 05:33S 29°59' E 031°00'2 2.4
2016-Feb-05 04:33S 29°59' E 031°03'14 0.3
2016-Feb-03 10:16S 29°48' E 031°11'0 0.0
2016-Feb-03 09:28S 29°48' E 031°11'0 0.0
2016-Feb-03 08:31S 29°48' E 031°11'0 0.0
2016-Feb-03 07:28S 29°48' E 031°11'0 0.0
2016-Feb-03 06:31S 29°48' E 031°11'0 0.1
2016-Feb-03 05:31S 29°48' E 031°11'0 0.0
2016-Feb-03 04:31S 29°48' E 031°11'0 0.0
2016-Feb-03 03:31S 29°48' E 031°11'0 0.0
2016-Feb-03 02:31S 29°48' E 031°11'0 0.0
2016-Feb-03 01:31S 29°48' E 031°11'0 0.0
2016-Feb-03 00:31S 29°48' E 031°11'0 0.0
2016-Feb-02 23:28S 29°48' E 031°11'0 0.0
2016-Feb-02 22:25S 29°48' E 031°11'0 0.0
2016-Feb-02 21:28S 29°48' E 031°11'0 0.0
2016-Feb-02 20:31S 29°48' E 031°11'0 0.0
2016-Feb-02 19:31S 29°48' E 031°11'0 0.0
2016-Feb-02 18:28S 29°48' E 031°11'0 0.0
2016-Feb-02 17:28S 29°48' E 031°11'0 0.0
2016-Feb-02 16:31S 29°48' E 031°11'0 0.0
2016-Feb-02 15:31S 29°48' E 031°11'0 0.0
2016-Feb-02 14:31S 29°48' E 031°11'0 0.0
2016-Feb-02 13:31S 29°48' E 031°11'0 0.0
2016-Feb-02 12:31S 29°48' E 031°11'0 0.0
2016-Feb-02 11:31S 29°48' E 031°11'0 0.0
2016-Feb-02 10:31S 29°48' E 031°11'0 0.0
2016-Feb-02 09:22S 29°48' E 031°11'0 0.0
2016-Feb-02 08:31S 29°48' E 031°11'0 0.0
2016-Feb-02 07:28S 29°48' E 031°11'0 0.1
2016-Feb-02 06:31S 29°48' E 031°11'2 0.0
2016-Jan-31 19:17S 29°46' E 031°12'0 0.0
2016-Jan-31 18:32S 29°46' E 031°12'0 0.0
2016-Jan-31 17:32S 29°46' E 031°11'0 0.0
2016-Jan-31 16:32S 29°46' E 031°11'0 0.0
2016-Jan-31 15:32S 29°46' E 031°11'0 0.0
2016-Jan-31 14:32S 29°46' E 031°11'0 0.0
2016-Jan-31 13:32S 29°46' E 031°11'0 0.0
2016-Jan-31 12:32S 29°46' E 031°11'  
Track history (hours):
 
Tides and Currents Weather Stations Pressure Air Temp Water Temp Dewpoint Dewpoint Depression Visibility Wind Speed Wind Dir Waves Ship Positions

Delta Ocean

Last reported at 2016-Feb-10 12:22 UTC. Time now 2016-Feb-11 08:49 UTC.
Position S 30°41' E 016°11'.

Length 274 m; draft 9 m.

Type: Tanker. MMSI: 240958000.

Date/timePositionNaut miles runAvg speedWind from/ knotsBaromVisibWave heightAir tempDewpointWater temp
2016-Feb-10 12:22S 30°41' E 016°11'97 9.6
2016-Feb-10 02:15S 32°11' E 016°52'48 9.9
2016-Feb-09 21:25S 32°56' E 017°13'23 9.9
2016-Feb-09 19:05S 33°17' E 017°23'25 9.8
2016-Feb-09 16:33S 33°41' E 017°34'1210.2
2016-Feb-09 15:21S 33°52' E 017°40'1010.0
2016-Feb-09 14:22S 34°01' E 017°44'1210.3
2016-Feb-09 13:15S 34°12' E 017°49'910.5
2016-Feb-09 12:23S 34°20' E 017°53'1210.6
2016-Feb-09 11:15S 34°31' E 017°60'811.2
2016-Feb-09 10:30S 34°36' E 018°07'1310.7
2016-Feb-09 09:19S 34°41' E 018°22'120 9.4
2016-Feb-08 20:32S 34°58' E 020°46'356 9.4
2016-Feb-07 06:31S 33°39' E 027°46'1413.3
2016-Feb-07 05:26S 33°31' E 028°01'1213.3
2016-Feb-07 04:31S 33°24' E 028°13'1913.0
2016-Feb-07 03:05S 33°11' E 028°29'21011.2
2016-Feb-06 08:14S 30°21' E 030°55'20 4.9
2016-Feb-06 04:07S 30°01' E 030°59'1 1.6
2016-Feb-06 03:26S 30°00' E 030°58'0 0.0
2016-Feb-06 02:29S 30°00' E 030°58'0 0.0
2016-Feb-06 01:32S 30°00' E 030°58'0 0.0
2016-Feb-06 00:32S 30°00' E 030°58'0 0.0
2016-Feb-05 23:32S 30°00' E 030°58'0 0.0
2016-Feb-05 22:29S 30°00' E 030°58'0 0.0
2016-Feb-05 21:32S 30°00' E 030°58'0 0.0
2016-Feb-05 20:32S 30°00' E 030°58'0 0.0
2016-Feb-05 19:32S 30°00' E 030°58'0 0.0
2016-Feb-05 18:29S 30°00' E 030°58'0 0.0
2016-Feb-05 17:32S 30°00' E 030°58'0 0.0
2016-Feb-05 16:23S 30°00' E 030°58'0 0.0
2016-Feb-05 15:32S 30°00' E 030°58'0 0.0
2016-Feb-05 14:32S 30°00' E 030°58'0 0.0
2016-Feb-05 13:32S 30°00' E 030°58'0 0.0
2016-Feb-05 12:29S 30°00' E 030°58'0 0.0
2016-Feb-05 11:32S 30°00' E 030°58'0 0.0
2016-Feb-05 10:29S 30°00' E 030°58'0 0.0
2016-Feb-05 09:32S 30°00' E 030°58'0 0.0
2016-Feb-05 08:32S 30°00' E 030°58'0 0.0
2016-Feb-05 07:32S 30°00' E 030°58'0 0.1
2016-Feb-05 06:33S 30°00' E 030°59'1 1.5
2016-Feb-05 05:33S 29°59' E 031°00'2 2.4
2016-Feb-05 04:33S 29°59' E 031°03'14 0.3
2016-Feb-03 10:16S 29°48' E 031°11'0 0.0
2016-Feb-03 09:28S 29°48' E 031°11'0 0.0
2016-Feb-03 08:31S 29°48' E 031°11'0 0.0
2016-Feb-03 07:28S 29°48' E 031°11'0 0.0
2016-Feb-03 06:31S 29°48' E 031°11'0 0.1
2016-Feb-03 05:31S 29°48' E 031°11'0 0.0
2016-Feb-03 04:31S 29°48' E 031°11'0 0.0
2016-Feb-03 03:31S 29°48' E 031°11'0 0.0
2016-Feb-03 02:31S 29°48' E 031°11'0 0.0
2016-Feb-03 01:31S 29°48' E 031°11'0 0.0
2016-Feb-03 00:31S 29°48' E 031°11'0 0.0
2016-Feb-02 23:28S 29°48' E 031°11'0 0.0
2016-Feb-02 22:25S 29°48' E 031°11'0 0.0
2016-Feb-02 21:28S 29°48' E 031°11'0 0.0
2016-Feb-02 20:31S 29°48' E 031°11'0 0.0
2016-Feb-02 19:31S 29°48' E 031°11'0 0.0
2016-Feb-02 18:28S 29°48' E 031°11'0 0.0
2016-Feb-02 17:28S 29°48' E 031°11'0 0.0
2016-Feb-02 16:31S 29°48' E 031°11'0 0.0
2016-Feb-02 15:31S 29°48' E 031°11'0 0.0
2016-Feb-02 14:31S 29°48' E 031°11'0 0.0
2016-Feb-02 13:31S 29°48' E 031°11'0 0.0
2016-Feb-02 12:31S 29°48' E 031°11'0 0.0
2016-Feb-02 11:31S 29°48' E 031°11'0 0.0
2016-Feb-02 10:31S 29°48' E 031°11'0 0.0
2016-Feb-02 09:22S 29°48' E 031°11'0 0.0
2016-Feb-02 08:31S 29°48' E 031°11'0 0.0
2016-Feb-02 07:28S 29°48' E 031°11'0 0.1
2016-Feb-02 06:31S 29°48' E 031°11'2 0.0
2016-Jan-31 19:17S 29°46' E 031°12'0 0.0
2016-Jan-31 18:32S 29°46' E 031°12'0 0.0
2016-Jan-31 17:32S 29°46' E 031°11'0 0.0
2016-Jan-31 16:32S 29°46' E 031°11'0 0.0
2016-Jan-31 15:32S 29°46' E 031°11'0 0.0
2016-Jan-31 14:32S 29°46' E 031°11'0 0.0
2016-Jan-31 13:32S 29°46' E 031°11'0 0.0
2016-Jan-31 12:32S 29°46' E 031°11'  

Dump ship's entire track history